KMGM/MGM METAR and TAF weather

Enter ICAO airport designator
Station Type Date Time Source
KMGM METAR 2018/12/19 02:53 UTC NOAA

KMGM 190253Z 00000KT 10SM CLR 10/05 A3010 RMK AO2 SLP191 T01000050 51002


Station Type Date Time Source
KMGM Decoded METAR 2018/12/19 02:53 UTC NOAA

MONTGOMERY DANNELLY FIELD, AL, United States (KMGM) 32-18N 86-24W 63M
Dec 18, 2018 - 09:53 PM EST / 2018.12.19 0253 UTC
Wind: Calm:0
Visibility: 10 mile(s):0
Sky conditions: clear
Temperature: 50.0 F (10.0 C)
Dew Point: 41.0 F (5.0 C)
Relative Humidity: 71%
Pressure (altimeter): 30.1 in. Hg (1019 hPa)
Pressure tendency: 0.01 inches (0.2 hPa) higher than three hours ago
ob: KMGM 190253Z 00000KT 10SM CLR 10/05 A3010 RMK AO2 SLP191 T01000050 51002
cycle: 3

Station Type Date Time Source
KMGM TAF 2018/12/18 18:57 UTC NOAA

TAF KMGM 181740Z 1818/1918 30003KT P6SM SCT250
FM190100 00000KT P6SM SKC
FM191500 10005KT P6SM SCT250


Example: see airport list